Time;durP1;ratioP1;P1;durP2;ratioP2;P2;SDS_P1;SDS_P2;PMS_P1;PMS_P2;Temp;Humidity;BMP_temperature;BMP_pressure;BME280_temperature;BME280_humidity;BME280_pressure;Samples;Min_cycle;Max_cycle;Signal;HPM_P1;HPM_P2
2022/05/18 00:00:45;;;;;;;27.90;18.02;;;17.50;99.90;;;;;;5068298;28;20102;-65
2022/05/18 00:03:11;;;;;;;30.67;19.48;;;17.40;99.90;;;;;;5066202;28;20040;-65
2022/05/18 00:05:39;;;;;;;29.95;18.13;;;17.40;99.90;;;;;;5067865;28;20087;-62
2022/05/18 00:08:06;;;;;;;29.63;17.73;;;17.40;99.90;;;;;;5068983;28;20506;-63
2022/05/18 00:10:33;;;;;;;32.83;18.75;;;17.30;99.90;;;;;;5051619;28;20048;-61
2022/05/18 00:12:59;;;;;;;30.67;17.75;;;17.30;99.90;;;;;;5068676;28;20048;-65
2022/05/18 00:15:27;;;;;;;31.20;17.67;;;17.30;99.90;;;;;;5068229;28;20040;-61
2022/05/18 00:17:53;;;;;;;33.63;17.85;;;17.20;99.90;;;;;;5068052;28;20516;-63
2022/05/18 00:20:19;;;;;;;27.08;18.33;;;17.20;99.90;;;;;;5065104;28;20047;-63
2022/05/18 00:22:56;;;;;;;27.40;18.25;;;17.20;99.90;;;;;;5064028;28;20055;-66
2022/05/18 00:25:25;;;;;;;36.58;18.23;;;17.10;99.90;;;;;;5048784;28;20449;-68
2022/05/18 00:27:51;;;;;;;32.60;19.65;;;17.10;99.90;;;;;;5064330;28;20045;-65
2022/05/18 00:30:18;;;;;;;26.92;17.38;;;17.10;99.90;;;;;;5065071;28;20407;-63
2022/05/18 00:32:45;;;;;;;27.38;17.52;;;17.10;99.90;;;;;;5064294;28;20057;-59
2022/05/18 00:35:11;;;;;;;28.05;18.30;;;17.00;99.90;;;;;;5065087;28;20045;-66
2022/05/18 00:37:37;;;;;;;26.67;18.45;;;17.00;99.90;;;;;;5048278;28;20036;-60
2022/05/18 00:40:04;;;;;;;27.35;17.67;;;17.00;99.90;;;;;;5065019;28;20037;-58
2022/05/18 00:42:30;;;;;;;30.65;18.60;;;16.90;99.90;;;;;;5064970;28;20411;-69
2022/05/18 00:44:56;;;;;;;34.25;18.45;;;16.90;99.90;;;;;;5064462;28;20037;-58
2022/05/18 00:47:23;;;;;;;31.77;18.15;;;16.90;99.90;;;;;;5065081;28;20110;-68
2022/05/18 00:49:53;;;;;;;25.98;17.58;;;16.80;99.90;;;;;;5065336;28;20049;-59
2022/05/18 00:52:24;;;;;;;29.50;18.33;;;16.80;99.90;;;;;;5064805;28;20475;-64
2022/05/18 00:54:52;;;;;;;32.55;18.90;;;16.80;99.90;;;;;;5066340;28;20049;-62
2022/05/18 00:57:23;;;;;;;30.95;18.50;;;16.80;99.90;;;;;;5064735;28;20062;-66
2022/05/18 01:00:11;;;;;;;29.25;17.33;;;16.80;99.90;;;;;;5065720;28;20052;-60
2022/05/18 01:02:42;;;;;;;31.17;18.20;;;16.80;99.90;;;;;;5047155;28;20127;-62
2022/05/18 01:05:12;;;;;;;29.70;17.75;;;16.80;99.90;;;;;;5048665;28;20374;-65
2022/05/18 01:07:47;;;;;;;29.55;17.88;;;16.80;99.90;;;;;;5064247;28;20047;-64
2022/05/18 01:10:13;;;;;;;32.20;18.17;;;16.80;99.90;;;;;;5065773;28;20406;-61
2022/05/18 01:12:39;;;;;;;25.55;17.20;;;16.80;99.90;;;;;;5064830;28;20051;-62
2022/05/18 01:15:12;;;;;;;24.40;16.92;;;16.80;99.90;;;;;;5064085;28;20059;-59
2022/05/18 01:17:42;;;;;;;31.65;19.00;;;16.80;99.90;;;;;;5064465;28;20048;-58
2022/05/18 01:20:17;;;;;;;25.02;17.40;;;16.80;99.90;;;;;;5064448;28;20064;-68
2022/05/18 01:23:21;;;;;;;25.35;17.33;;;16.70;99.90;;;;;;5064058;28;20076;-61
2022/05/18 01:25:54;;;;;;;28.00;17.23;;;16.70;99.90;;;;;;5064662;28;20052;-60
2022/05/18 01:28:23;;;;;;;32.55;18.65;;;16.70;99.90;;;;;;5064693;28;20376;-64
2022/05/18 01:30:49;;;;;;;28.90;17.33;;;16.70;99.90;;;;;;5064596;28;20045;-63
2022/05/18 01:33:19;;;;;;;29.25;17.60;;;16.70;99.90;;;;;;5064104;28;20778;-59
2022/05/18 01:35:47;;;;;;;31.60;18.75;;;16.70;99.90;;;;;;5063879;28;20044;-65
2022/05/18 01:38:13;;;;;;;32.33;17.25;;;16.70;99.90;;;;;;5048484;28;20507;-60
2022/05/18 01:40:46;;;;;;;25.20;16.45;;;16.70;99.90;;;;;;5051061;28;20092;-68
2022/05/18 01:43:33;;;;;;;25.60;17.55;;;16.60;99.90;;;;;;5069075;28;20088;-63
2022/05/18 01:46:03;;;;;;;32.38;19.15;;;16.60;99.90;;;;;;5067782;28;20444;-70
2022/05/18 01:48:30;;;;;;;;;;;16.60;99.90;;;;;;5051495;28;20045;-60
2022/05/18 01:50:58;;;;;;;30.63;16.98;;;16.60;99.90;;;;;;5068148;28;19970;-60
2022/05/18 01:53:24;;;;;;;29.02;16.73;;;16.60;99.90;;;;;;5051170;28;20099;-61
2022/05/18 01:55:50;;;;;;;27.95;16.88;;;16.60;99.90;;;;;;5051197;28;20044;-63
2022/05/18 01:58:16;;;;;;;26.92;18.52;;;16.60;99.90;;;;;;5068907;28;20095;-64
2022/05/18 02:00:44;;;;;;;22.67;17.08;;;16.60;99.90;;;;;;5068022;28;20094;-62
2022/05/18 02:03:10;;;;;;;27.75;18.45;;;16.60;99.90;;;;;;5067358;28;20080;-60
2022/05/18 02:05:36;;;;;;;28.13;17.52;;;16.60;99.90;;;;;;5066991;28;20052;-61
2022/05/18 02:08:04;;;;;;;24.60;16.63;;;16.50;99.90;;;;;;5067951;28;20049;-63
2022/05/18 02:10:30;;;;;;;24.38;16.80;;;16.50;99.90;;;;;;5067054;28;20044;-63
2022/05/18 02:12:56;;;;;;;31.25;17.17;;;16.50;99.90;;;;;;5051545;28;20102;-63
2022/05/18 02:15:23;;;;;;;32.42;16.95;;;16.50;99.90;;;;;;5067372;28;20040;-59
2022/05/18 02:17:50;;;;;;;25.45;17.63;;;16.40;99.90;;;;;;5067643;28;20395;-59
2022/05/18 02:20:16;;;;;;;26.08;17.17;;;16.40;99.90;;;;;;5050469;28;20537;-63
2022/05/18 02:22:42;;;;;;;23.90;16.52;;;16.40;99.90;;;;;;5067546;28;20051;-63
2022/05/18 02:25:08;;;;;;;28.13;17.00;;;16.30;99.90;;;;;;5067766;28;20166;-60
2022/05/18 02:27:34;;;;;;;23.17;17.27;;;16.40;99.90;;;;;;5066757;28;20609;-61
2022/05/18 02:30:00;;;;;;;30.52;17.55;;;16.30;99.90;;;;;;5067986;28;20059;-60
2022/05/18 02:32:26;;;;;;;23.80;16.92;;;16.20;99.90;;;;;;5066886;28;20049;-63
2022/05/18 02:34:52;;;;;;;22.67;16.88;;;16.20;99.90;;;;;;5051081;28;20079;-62
2022/05/18 02:37:17;;;;;;;32.92;17.35;;;16.20;99.90;;;;;;5066572;28;20044;-62
2022/05/18 02:39:44;;;;;;;27.52;16.60;;;16.10;99.90;;;;;;5067082;28;20044;-65
2022/05/18 02:42:09;;;;;;;20.17;15.68;;;16.10;99.90;;;;;;5067059;28;20040;-59
2022/05/18 02:44:35;;;;;;;25.45;15.48;;;16.00;99.90;;;;;;5067026;28;20090;-65
2022/05/18 02:47:01;;;;;;;26.13;16.67;;;16.00;99.90;;;;;;5050558;28;20755;-60
2022/05/18 02:49:27;;;;;;;23.75;16.05;;;15.90;99.90;;;;;;5066703;28;20062;-69
2022/05/18 02:51:53;;;;;;;22.13;15.25;;;15.90;99.90;;;;;;5066246;28;20048;-60
2022/05/18 02:57:05;;;;;;;26.65;14.82;;;15.80;99.90;;;;;;5067088;28;20048;-63
2022/05/18 02:59:31;;;;;;;28.17;16.50;;;15.70;99.90;;;;;;5046286;28;20541;-67
2022/05/18 03:01:57;;;;;;;20.13;14.68;;;15.70;99.90;;;;;;5054947;28;20393;-60
2022/05/18 03:04:23;;;;;;;24.88;15.75;;;15.60;99.90;;;;;;5066995;28;20041;-65
2022/05/18 03:06:49;;;;;;;24.45;15.15;;;15.60;99.90;;;;;;5067311;28;20041;-61
2022/05/18 03:09:15;;;;;;;23.40;14.80;;;15.60;99.90;;;;;;5067055;28;20127;-61
2022/05/18 03:11:41;;;;;;;22.98;14.57;;;15.50;99.90;;;;;;5065565;28;20062;-59
2022/05/18 03:14:07;;;;;;;18.38;13.85;;;15.50;99.90;;;;;;5067068;28;20044;-62
2022/05/18 03:16:33;;;;;;;21.08;15.27;;;15.40;99.90;;;;;;5049975;28;20589;-64
2022/05/18 03:18:59;;;;;;;23.60;14.90;;;15.40;99.90;;;;;;5049595;28;20367;-64
2022/05/18 03:24:10;;;;;;;15.52;12.88;;;15.30;99.90;;;;;;5066229;28;20049;-60
2022/05/18 03:26:37;;;;;;;20.67;13.07;;;15.30;99.90;;;;;;5066337;28;20487;-64
2022/05/18 03:29:03;;;;;;;15.63;12.75;;;15.30;99.90;;;;;;5065860;28;21125;-64
2022/05/18 03:31:29;;;;;;;16.42;12.93;;;15.30;99.90;;;;;;5066070;28;20127;-65
2022/05/18 03:33:55;;;;;;;20.35;13.02;;;15.30;99.90;;;;;;5065807;28;20054;-59
2022/05/18 03:36:21;;;;;;;17.27;12.73;;;15.30;99.90;;;;;;5065949;28;20072;-64
2022/05/18 03:38:48;;;;;;;20.08;12.05;;;15.20;99.90;;;;;;5066115;28;20045;-62
2022/05/18 03:41:16;;;;;;;18.27;12.07;;;15.20;99.90;;;;;;5065593;28;20049;-59
2022/05/18 03:43:42;;;;;;;18.75;12.80;;;15.30;99.90;;;;;;5049755;28;20049;-60
2022/05/18 03:46:08;;;;;;;17.75;11.43;;;15.20;99.90;;;;;;5065572;28;20098;-64
2022/05/18 03:48:35;;;;;;;16.38;11.27;;;15.20;99.90;;;;;;5049943;28;20076;-60
2022/05/18 03:51:02;;;;;;;14.02;11.32;;;15.20;99.90;;;;;;5065320;28;20044;-60
2022/05/18 03:53:29;;;;;;;20.30;11.43;;;15.20;99.90;;;;;;5065911;28;20044;-66
2022/05/18 03:55:55;;;;;;;18.38;11.60;;;15.10;99.90;;;;;;5066753;28;20099;-59
2022/05/18 03:58:21;;;;;;;19.63;11.40;;;15.10;99.90;;;;;;5065445;28;20045;-59
2022/05/18 04:00:49;;;;;;;16.08;11.20;;;15.10;99.90;;;;;;5065081;28;20048;-62
2022/05/18 04:03:18;;;;;;;17.63;11.68;;;15.00;99.90;;;;;;5064859;28;20053;-66
2022/05/18 04:05:45;;;;;;;16.42;11.05;;;15.00;99.90;;;;;;5065616;28;20102;-64
2022/05/18 04:08:11;;;;;;;16.35;11.20;;;15.00;99.90;;;;;;5065549;28;20048;-64
2022/05/18 04:10:39;;;;;;;19.13;11.18;;;15.00;99.90;;;;;;5065035;28;20423;-61
2022/05/18 04:13:15;;;;;;;19.85;10.65;;;15.00;99.90;;;;;;5065473;28;20048;-65
2022/05/18 04:15:41;;;;;;;17.35;10.45;;;14.90;99.90;;;;;;5064767;28;20044;-65
2022/05/18 04:18:08;;;;;;;20.65;10.20;;;15.00;99.90;;;;;;5065633;28;20044;-64
2022/05/18 04:20:34;;;;;;;14.73;10.30;;;15.00;99.90;;;;;;5064634;28;20051;-66
2022/05/18 04:22:59;;;;;;;19.58;10.20;;;15.00;99.90;;;;;;5028452;28;20599;-66
2022/05/18 04:25:27;;;;;;;16.50;9.88;;;15.10;99.90;;;;;;5054323;28;20123;-64
2022/05/18 04:27:54;;;;;;;15.38;10.48;;;15.10;99.90;;;;;;5064995;28;20509;-59
2022/05/18 04:30:24;;;;;;;16.05;9.63;;;15.10;99.90;;;;;;5065050;28;20083;-63
2022/05/18 04:32:51;;;;;;;14.50;10.02;;;15.10;99.90;;;;;;5067849;28;20052;-64
2022/05/18 04:35:21;;;;;;;16.25;8.88;;;15.20;99.90;;;;;;5029106;28;20459;-61
2022/05/18 04:37:47;;;;;;;12.27;9.13;;;15.20;99.90;;;;;;5044061;28;20516;-60
2022/05/18 04:40:13;;;;;;;17.83;9.48;;;15.20;99.90;;;;;;5045719;28;20503;-59
2022/05/18 04:42:39;;;;;;;15.57;9.43;;;15.20;99.90;;;;;;5052965;28;20048;-70
2022/05/18 04:45:08;;;;;;;14.50;9.35;;;15.20;99.90;;;;;;5066719;28;20048;-60
2022/05/18 04:47:34;;;;;;;14.80;9.23;;;15.20;99.90;;;;;;5066457;28;20051;-66
2022/05/18 04:50:00;;;;;;;14.07;9.40;;;15.30;99.90;;;;;;5064353;28;20052;-66
2022/05/18 04:52:25;;;;;;;13.90;9.02;;;15.40;99.90;;;;;;5044537;28;20049;-58
2022/05/18 04:54:51;;;;;;;12.52;8.55;;;15.40;99.90;;;;;;5061095;28;20052;-65
2022/05/18 04:57:18;;;;;;;9.88;7.95;;;15.50;99.90;;;;;;5062191;28;20041;-58
2022/05/18 04:59:44;;;;;;;13.85;8.75;;;15.50;99.90;;;;;;5060356;28;20045;-65
2022/05/18 05:02:10;;;;;;;14.55;7.60;;;15.60;99.90;;;;;;5038848;28;20471;-67
2022/05/18 05:04:37;;;;;;;12.70;7.55;;;15.70;99.90;;;;;;5047952;28;20052;-66
2022/05/18 05:07:04;;;;;;;15.80;9.13;;;15.90;99.90;;;;;;5081320;28;20431;-64
2022/05/18 05:09:30;;;;;;;15.82;8.18;;;15.90;99.90;;;;;;5081612;28;20123;-63
2022/05/18 05:11:56;;;;;;;14.70;8.27;;;15.90;99.90;;;;;;5063807;28;20135;-59
2022/05/18 05:14:23;;;;;;;12.65;8.20;;;16.00;99.90;;;;;;5080305;28;20510;-63
2022/05/18 05:16:49;;;;;;;10.52;7.90;;;16.10;99.90;;;;;;5068085;28;20071;-59
2022/05/18 05:19:15;;;;;;;17.67;8.52;;;16.20;99.90;;;;;;5068541;28;20491;-59
2022/05/18 05:21:43;;;;;;;10.98;7.53;;;16.20;99.90;;;;;;5051785;28;20119;-65
2022/05/18 05:24:14;;;;;;;15.50;7.95;;;16.30;99.90;;;;;;5052286;28;20055;-59
2022/05/18 05:26:41;;;;;;;12.85;8.32;;;16.40;99.90;;;;;;5069223;28;20076;-62
2022/05/18 05:29:09;;;;;;;20.35;9.25;;;16.50;99.90;;;;;;5054074;28;20060;-63
2022/05/18 05:31:36;;;;;;;15.38;8.07;;;16.60;99.90;;;;;;5037092;28;20078;-63
2022/05/18 05:34:02;;;;;;;11.73;8.80;;;16.70;99.90;;;;;;5061556;28;20051;-64
2022/05/18 05:36:28;;;;;;;13.75;7.90;;;16.70;99.90;;;;;;5068306;28;20443;-61
2022/05/18 05:38:54;;;;;;;10.07;8.02;;;16.70;99.90;;;;;;5066890;28;20408;-59
2022/05/18 05:41:20;;;;;;;12.07;7.70;;;16.70;99.90;;;;;;5068536;28;20029;-61
2022/05/18 05:43:45;;;;;;;11.60;7.47;;;16.70;99.90;;;;;;5038948;28;20410;-69
2022/05/18 05:46:15;;;;;;;16.48;7.78;;;16.70;99.90;;;;;;5067461;28;20045;-68
2022/05/18 05:48:44;;;;;;;10.52;7.20;;;16.70;99.90;;;;;;5051063;28;20052;-66
2022/05/18 05:51:13;;;;;;;13.50;7.75;;;16.80;99.90;;;;;;5067148;28;20047;-61
2022/05/18 05:53:47;;;;;;;10.00;6.85;;;16.90;99.90;;;;;;5068442;28;20052;-62
2022/05/18 05:56:15;;;;;;;16.13;7.55;;;16.90;99.90;;;;;;5067864;28;20106;-61
2022/05/18 05:58:43;;;;;;;10.48;7.68;;;17.00;99.90;;;;;;5069467;28;20434;-59
2022/05/18 06:01:11;;;;;;;10.23;6.75;;;17.00;99.90;;;;;;5050581;28;20477;-59
2022/05/18 06:03:38;;;;;;;12.77;7.07;;;17.20;99.90;;;;;;5067670;28;20048;-64
2022/05/18 06:06:04;;;;;;;13.90;6.60;;;17.30;99.90;;;;;;5078871;28;20106;-61
2022/05/18 06:08:30;;;;;;;10.27;6.85;;;17.30;99.90;;;;;;5060289;28;20120;-59
2022/05/18 06:10:57;;;;;;;17.38;6.97;;;17.30;99.90;;;;;;5067859;28;20044;-59
2022/05/18 06:13:23;;;;;;;9.07;7.05;;;17.40;99.90;;;;;;5068204;28;20071;-69
2022/05/18 06:15:49;;;;;;;12.50;6.85;;;17.50;99.90;;;;;;5067399;28;20510;-61
2022/05/18 06:18:15;;;;;;;8.88;6.43;;;17.50;99.90;;;;;;5067372;28;20048;-63
2022/05/18 06:20:41;;;;;;;9.50;6.57;;;17.70;99.90;;;;;;5078878;28;20151;-62
2022/05/18 06:23:09;;;;;;;11.05;6.75;;;17.70;99.90;;;;;;5088486;28;20123;-61
2022/05/18 06:25:35;;;;;;;15.25;6.93;;;17.90;99.90;;;;;;5087449;28;20601;-60
2022/05/18 06:28:01;;;;;;;10.93;6.97;;;18.00;99.90;;;;;;5071031;28;20044;-63
2022/05/18 06:30:27;;;;;;;10.65;6.97;;;18.20;99.90;;;;;;5087046;28;20071;-67
2022/05/18 06:32:53;;;;;;;11.85;7.10;;;18.50;99.90;;;;;;5070182;28;20082;-65
2022/05/18 06:35:19;;;;;;;14.13;7.00;;;18.70;99.90;;;;;;5053989;28;20501;-64
2022/05/18 06:37:45;;;;;;;10.32;5.60;;;18.80;99.90;;;;;;5083136;28;20033;-65
2022/05/18 06:40:11;;;;;;;11.60;6.93;;;18.90;99.90;;;;;;5068393;28;20044;-62
2022/05/18 06:42:37;;;;;;;9.02;6.10;;;19.00;99.90;;;;;;5062267;28;20050;-60
2022/05/18 06:45:04;;;;;;;10.80;6.40;;;19.30;99.90;;;;;;5070060;28;20048;-63
2022/05/18 06:47:31;;;;;;;16.13;6.15;;;19.60;99.90;;;;;;5088348;28;20078;-69
2022/05/18 06:49:57;;;;;;;13.93;5.93;;;19.90;99.90;;;;;;5070444;28;20119;-60
2022/05/18 06:52:23;;;;;;;11.98;5.82;;;20.20;99.90;;;;;;5052053;28;20085;-62
2022/05/18 06:54:49;;;;;;;12.07;5.65;;;20.30;99.90;;;;;;5087071;28;20040;-59
2022/05/18 06:57:16;;;;;;;15.63;6.38;;;20.50;99.90;;;;;;5070371;28;20087;-63
2022/05/18 06:59:41;;;;;;;9.70;5.75;;;20.70;99.90;;;;;;5070216;28;20047;-64
2022/05/18 07:02:08;;;;;;;11.30;5.85;;;20.80;99.90;;;;;;5069912;28;20066;-61
2022/05/18 07:04:34;;;;;;;10.50;5.80;;;20.90;99.90;;;;;;5068577;28;20040;-66
2022/05/18 07:07:00;;;;;;;11.88;5.78;;;21.10;99.90;;;;;;5053025;28;20805;-59
2022/05/18 07:09:27;;;;;;;13.40;6.60;;;21.30;99.90;;;;;;5068461;28;20051;-62
2022/05/18 07:11:53;;;;;;;13.77;6.32;;;21.60;99.90;;;;;;5069344;28;20448;-61
2022/05/18 07:14:22;;;;;;;9.02;5.68;;;21.90;99.90;;;;;;5057227;28;20132;-67
2022/05/18 07:16:49;;;;;;;11.48;5.90;;;22.20;99.90;;;;;;5033519;28;20037;-60
2022/05/18 07:19:16;;;;;;;8.88;6.15;;;22.50;99.90;;;;;;5048968;28;20055;-62
2022/05/18 07:21:44;;;;;;;9.60;5.65;;;22.70;99.40;;;;;;5049060;28;20053;-62
2022/05/18 07:24:10;;;;;;;9.98;5.65;;;23.10;99.90;;;;;;5080313;28;20431;-62
2022/05/18 07:26:36;;;;;;;15.02;6.07;;;23.30;95.20;;;;;;5085559;28;20097;-62
2022/05/18 07:29:04;;;;;;;11.73;6.03;;;23.30;96.70;;;;;;5086193;28;20698;-65
2022/05/18 07:31:31;;;;;;;10.75;5.88;;;23.40;96.00;;;;;;5052006;28;20048;-59
2022/05/18 07:33:57;;;;;;;11.75;5.93;;;23.50;94.50;;;;;;5085288;28;20097;-65
2022/05/18 07:36:23;;;;;;;10.02;6.00;;;23.60;96.10;;;;;;5051526;28;20552;-60
2022/05/18 07:38:48;;;;;;;10.88;6.00;;;23.80;92.90;;;;;;5032538;28;20479;-61
2022/05/18 07:41:16;;;;;;;9.27;5.95;;;24.10;90.60;;;;;;5032233;28;20048;-63
2022/05/18 07:43:42;;;;;;;15.68;6.63;;;24.30;85.80;;;;;;5049060;28;20052;-62
2022/05/18 07:46:10;;;;;;;11.50;6.60;;;24.40;79.70;;;;;;5081120;28;20110;-60
2022/05/18 07:48:39;;;;;;;8.32;5.88;;;24.40;86.30;;;;;;5066587;28;20796;-64
2022/05/18 07:51:05;;;;;;;8.32;5.97;;;24.40;75.30;;;;;;5068772;28;20089;-65
2022/05/18 07:53:31;;;;;;;14.15;6.63;;;24.50;73.20;;;;;;5068535;28;20456;-59
2022/05/18 07:55:56;;;;;;;12.75;6.70;;;24.70;78.10;;;;;;5067886;28;20083;-61
2022/05/18 07:58:23;;;;;;;9.63;6.07;;;24.90;79.60;;;;;;5068951;28;20406;-61
2022/05/18 08:00:49;;;;;;;17.67;6.30;;;25.00;70.90;;;;;;5068229;28;20032;-65
2022/05/18 08:03:15;;;;;;;18.30;6.57;;;25.00;74.70;;;;;;5068673;28;20470;-65
2022/05/18 08:05:43;;;;;;;11.48;6.18;;;25.10;77.10;;;;;;5064223;28;20056;-62
2022/05/18 08:08:13;;;;;;;10.45;6.60;;;25.20;67.70;;;;;;5059686;28;20054;-66
2022/05/18 08:16:10;;;;;;;15.00;5.82;;;25.70;62.40;;;;;;5048826;28;20174;-60
2022/05/18 08:18:36;;;;;;;11.75;6.43;;;25.80;67.90;;;;;;5066547;28;20048;-66
2022/05/18 08:21:03;;;;;;;10.98;5.90;;;25.90;65.00;;;;;;5066299;28;20225;-58
2022/05/18 08:23:29;;;;;;;11.10;5.97;;;26.00;64.30;;;;;;5066486;28;20053;-60
2022/05/18 08:25:56;;;;;;;24.90;7.30;;;26.10;56.60;;;;;;5048726;28;20060;-65
2022/05/18 08:28:22;;;;;;;8.82;5.75;;;26.20;62.00;;;;;;5068306;28;20052;-65
2022/05/18 08:30:47;;;;;;;12.52;6.47;;;26.20;62.00;;;;;;5067027;28;20097;-62
2022/05/18 08:33:13;;;;;;;17.85;6.30;;;26.30;59.20;;;;;;5067733;28;20032;-61
2022/05/18 08:35:40;;;;;;;10.88;5.78;;;26.50;60.30;;;;;;5067563;28;20083;-67
2022/05/18 08:38:06;;;;;;;7.40;5.15;;;26.40;50.60;;;;;;5082894;28;20131;-67
2022/05/18 08:40:51;;;;;;;11.02;5.15;;;26.50;54.80;;;;;;5067837;28;20131;-60
2022/05/18 08:43:25;;;;;;;8.57;4.88;;;26.50;49.00;;;;;;5068156;28;20244;-64
2022/05/18 08:46:04;;;;;;;13.40;5.65;;;26.60;43.60;;;;;;5065567;28;20043;-65
2022/05/18 08:48:52;;;;;;;12.35;5.50;;;26.70;49.80;;;;;;5069813;28;20162;-70
2022/05/18 08:51:38;;;;;;;13.15;4.40;;;26.70;47.30;;;;;;5045624;28;20350;-64
2022/05/18 08:54:22;;;;;;;12.15;4.50;;;26.90;45.90;;;;;;5045170;28;20105;-62
2022/05/18 08:56:50;;;;;;;15.05;4.78;;;26.90;42.00;;;;;;5045246;28;20040;-61
2022/05/18 08:59:27;;;;;;;13.65;5.55;;;26.90;41.00;;;;;;5061956;28;20040;-67
2022/05/18 09:01:57;;;;;;;11.90;5.13;;;27.00;39.10;;;;;;5064904;28;20048;-59
2022/05/18 09:04:44;;;;;;;11.93;4.40;;;27.00;36.00;;;;;;5068264;28;20121;-67
2022/05/18 09:07:13;;;;;;;7.50;3.90;;;27.10;38.10;;;;;;5067695;28;20460;-58
2022/05/18 09:10:14;;;;;;;8.98;3.40;;;26.90;26.10;;;;;;5052190;28;20037;-62
2022/05/18 09:12:45;;;;;;;9.18;3.80;;;26.80;27.60;;;;;;5017557;28;20545;-65
2022/05/18 09:15:18;;;;;;;5.25;4.18;;;26.80;29.40;;;;;;5064819;28;20130;-59
2022/05/18 09:17:54;;;;;;;7.75;3.92;;;26.90;32.50;;;;;;5050647;28;20048;-68
2022/05/18 09:20:40;;;;;;;11.65;4.60;;;27.10;37.50;;;;;;5050535;28;20092;-60
2022/05/18 09:23:22;;;;;;;6.75;4.82;;;27.30;32.70;;;;;;5063670;28;20048;-64
2022/05/18 09:26:03;;;;;;;5.75;3.97;;;27.50;29.00;;;;;;5065048;28;20113;-65
2022/05/18 09:28:53;;;;;;;17.90;5.32;;;27.50;31.50;;;;;;5051614;28;20048;-59
2022/05/18 09:31:43;;;;;;;5.90;3.55;;;27.70;31.50;;;;;;5068125;28;20600;-59
2022/05/18 09:34:48;;;;;;;9.50;3.97;;;27.80;25.40;;;;;;5084863;28;20040;-61
2022/05/18 09:37:51;;;;;;;9.35;3.75;;;27.80;22.70;;;;;;5067749;28;20081;-61
2022/05/18 09:40:20;;;;;;;6.45;2.90;;;27.80;28.30;;;;;;5084712;28;20054;-58
2022/05/18 09:42:52;;;;;;;7.72;3.15;;;27.80;23.00;;;;;;5049807;28;20039;-59
2022/05/18 09:45:22;;;;;;;5.78;3.42;;;27.70;24.70;;;;;;5083464;28;20036;-63
2022/05/18 09:47:54;;;;;;;4.72;3.28;;;27.80;21.70;;;;;;5067391;28;20040;-66
2022/05/18 09:50:21;;;;;;;9.30;3.53;;;27.80;24.20;;;;;;5058603;28;20087;-65
2022/05/18 09:52:50;;;;;;;9.85;3.60;;;27.90;23.70;;;;;;5075977;28;20059;-69
2022/05/18 09:55:21;;;;;;;5.88;4.00;;;28.00;25.30;;;;;;5049627;28;20527;-67
2022/05/18 09:57:59;;;;;;;8.95;4.53;;;28.00;23.90;;;;;;5060848;28;20483;-58
2022/05/18 10:00:27;;;;;;;12.23;4.30;;;28.10;26.80;;;;;;5059335;28;20425;-65
2022/05/18 10:08:33;;;;;;;8.13;4.13;;;28.20;20.50;;;;;;5071572;28;20059;-64
2022/05/18 10:11:13;;;;;;;11.82;4.20;;;28.20;23.10;;;;;;5070477;28;20047;-63
2022/05/18 10:14:07;;;;;;;8.70;3.72;;;28.30;18.80;;;;;;5069944;28;20098;-68
2022/05/18 10:17:02;;;;;;;11.00;3.83;;;28.30;19.60;;;;;;5057929;28;20752;-58
2022/05/18 10:19:33;;;;;;;13.93;4.03;;;28.20;16.10;;;;;;5069176;28;20040;-60
2022/05/18 10:22:07;;;;;;;7.88;3.45;;;28.10;16.40;;;;;;5061488;28;20082;-68
2022/05/18 10:24:45;;;;;;;11.75;3.58;;;28.10;18.20;;;;;;5053226;28;20417;-63
2022/05/18 10:27:17;;;;;;;11.55;4.45;;;28.20;20.80;;;;;;5069756;28;20139;-58
2022/05/18 10:30:13;;;;;;;4.72;3.35;;;28.20;14.80;;;;;;5076810;28;20047;-70
2022/05/18 10:33:02;;;;;;;5.97;3.30;;;28.00;14.60;;;;;;5053636;28;20131;-63
2022/05/18 10:35:49;;;;;;;7.72;3.47;;;28.00;14.30;;;;;;5052866;28;20121;-65
2022/05/18 10:38:23;;;;;;;8.15;3.25;;;28.00;18.10;;;;;;5021750;28;20051;-62
2022/05/18 10:40:52;;;;;;;8.23;3.38;;;27.90;18.10;;;;;;5085457;28;20051;-63
2022/05/18 10:43:29;;;;;;;8.30;3.38;;;28.00;17.00;;;;;;5085966;28;20044;-63
2022/05/18 10:46:17;;;;;;;6.20;2.67;;;28.10;14.30;;;;;;5085951;28;20040;-60
2022/05/18 10:48:52;;;;;;;6.55;2.80;;;28.10;14.20;;;;;;5086355;28;20052;-67
2022/05/18 10:51:45;;;;;;;3.88;3.00;;;28.20;19.30;;;;;;5086615;28;20394;-62
2022/05/18 10:54:21;;;;;;;11.38;3.60;;;28.30;21.10;;;;;;5086142;28;20083;-62
2022/05/18 10:56:47;;;;;;;8.88;2.63;;;28.40;16.80;;;;;;5087487;28;20568;-63
2022/05/18 10:59:34;;;;;;;6.28;2.63;;;28.40;14.80;;;;;;5087702;28;20044;-61
2022/05/18 11:02:21;;;;;;;21.13;3.10;;;28.40;16.10;;;;;;5086837;28;20066;-60
2022/05/18 11:04:56;;;;;;;5.80;3.03;;;28.30;12.10;;;;;;5087354;28;20059;-66
2022/05/18 11:07:25;;;;;;;9.60;4.25;;;28.10;14.70;;;;;;5085863;28;20056;-63
2022/05/18 11:09:51;;;;;;;;;;;27.50;13.00;;;;;;5087508;28;20060;-65
2022/05/18 11:12:28;;;;;;;7.95;4.40;;;26.90;19.40;;;;;;5085862;28;20408;-61
2022/05/18 11:15:28;;;;;;;8.48;4.20;;;26.50;16.50;;;;;;5086279;28;20394;-61
2022/05/18 11:18:04;;;;;;;6.60;4.00;;;26.10;19.10;;;;;;5016903;28;20064;-65
2022/05/18 11:20:55;;;;;;;10.20;4.03;;;25.80;20.40;;;;;;5084073;28;20056;-61
2022/05/18 11:23:26;;;;;;;9.73;3.70;;;25.60;18.50;;;;;;5073948;28;20040;-60
2022/05/18 11:25:58;;;;;;;10.40;3.92;;;25.50;20.20;;;;;;5085963;28;20123;-63
2022/05/18 11:28:37;;;;;;;7.45;4.10;;;25.50;21.20;;;;;;5084516;28;20501;-61
2022/05/18 11:31:20;;;;;;;6.80;3.63;;;25.40;19.20;;;;;;5084280;28;20101;-68
2022/05/18 11:34:04;;;;;;;6.25;3.28;;;25.40;18.80;;;;;;5086018;28;20051;-63
2022/05/18 11:36:45;;;;;;;7.25;3.13;;;25.40;17.80;;;;;;5083378;28;20083;-59
2022/05/18 11:39:42;;;;;;;10.85;2.80;;;25.40;18.70;;;;;;5069191;28;20055;-63
2022/05/18 11:42:25;;;;;;;9.00;3.25;;;25.40;16.80;;;;;;5063530;28;20040;-71
2022/05/18 11:44:57;;;;;;;13.82;3.70;;;25.50;19.00;;;;;;5064418;28;20087;-61
2022/05/18 11:47:35;;;;;;;9.20;3.30;;;25.50;22.60;;;;;;5084429;28;20047;-62
2022/05/18 11:50:16;;;;;;;4.78;2.97;;;25.50;27.40;;;;;;5083572;28;20073;-71
2022/05/18 11:53:13;;;;;;;8.80;3.00;;;25.60;21.80;;;;;;5085146;28;20071;-61
2022/05/18 11:55:47;;;;;;;10.48;3.00;;;25.70;22.20;;;;;;5096484;28;20495;-58
2022/05/18 11:58:13;;;;;;;6.00;3.08;;;25.80;23.40;;;;;;5084484;28;20040;-60
2022/05/18 12:01:14;;;;;;;9.27;3.58;;;25.90;23.60;;;;;;5068504;28;20054;-58
2022/05/18 12:03:55;;;;;;;13.95;4.07;;;25.80;19.70;;;;;;5077370;28;20402;-66
2022/05/18 12:07:12;;;;;;;8.98;5.68;;;25.50;26.90;;;;;;5072293;28;20097;-62
2022/05/18 12:10:02;;;;;;;11.30;7.57;;;25.20;24.10;;;;;;5054497;28;20398;-58
2022/05/18 12:12:40;;;;;;;12.80;7.13;;;24.70;28.40;;;;;;5075176;28;20056;-64
2022/05/18 12:15:19;;;;;;;9.97;5.93;;;24.40;36.90;;;;;;5087116;28;20036;-60
2022/05/18 12:17:53;;;;;;;13.98;7.15;;;24.30;40.10;;;;;;5086046;28;20366;-61
2022/05/18 12:20:27;;;;;;;15.98;8.30;;;24.40;36.20;;;;;;5084541;28;20093;-60
2022/05/18 12:22:57;;;;;;;16.10;9.93;;;24.30;37.40;;;;;;5068305;28;20044;-58
2022/05/18 12:25:25;;;;;;;16.85;9.65;;;23.90;42.50;;;;;;5084598;28;20052;-59
2022/05/18 12:27:55;;;;;;;14.23;9.47;;;23.70;40.20;;;;;;5084803;28;20051;-65
2022/05/18 12:30:23;;;;;;;24.58;10.98;;;23.50;48.80;;;;;;5085501;28;20089;-59
2022/05/18 12:32:51;;;;;;;17.38;10.52;;;23.30;44.40;;;;;;5084420;28;20455;-59
2022/05/18 12:35:23;;;;;;;19.92;9.80;;;23.10;47.80;;;;;;5085617;28;20044;-58
2022/05/18 12:38:08;;;;;;;19.13;11.25;;;22.90;54.50;;;;;;5084997;28;20068;-63
2022/05/18 12:40:55;;;;;;;18.52;11.02;;;22.60;54.40;;;;;;5085032;28;20055;-71
2022/05/18 12:43:26;;;;;;;25.35;12.10;;;22.50;55.40;;;;;;5085348;28;20105;-59
2022/05/18 12:46:04;;;;;;;19.25;11.38;;;22.50;47.20;;;;;;5084770;28;20051;-63
2022/05/18 12:48:38;;;;;;;22.23;11.98;;;22.70;55.50;;;;;;5084827;28;20048;-60
2022/05/18 12:51:15;;;;;;;25.15;11.80;;;22.60;59.60;;;;;;5079608;28;20051;-70
2022/05/18 12:54:09;;;;;;;26.17;11.75;;;22.50;66.10;;;;;;5081288;28;20127;-67
2022/05/18 12:56:37;;;;;;;23.10;13.60;;;22.40;66.30;;;;;;5079154;28;20035;-65
2022/05/18 12:59:08;;;;;;;18.85;14.35;;;22.20;67.40;;;;;;5081751;28;20051;-63
2022/05/18 13:01:45;;;;;;;22.17;14.40;;;21.90;73.40;;;;;;5081992;28;20192;-63
2022/05/18 13:04:10;;;;;;;26.25;15.20;;;21.50;81.50;;;;;;5085545;28;20046;-65
2022/05/18 13:06:36;;;;;;;21.58;14.65;;;21.20;83.90;;;;;;5083974;28;20386;-62
2022/05/18 13:09:21;;;;;;;25.85;14.63;;;21.00;87.30;;;;;;5068043;28;20044;-59
2022/05/18 13:12:23;;;;;;;21.77;14.10;;;21.10;93.60;;;;;;5083789;28;20101;-60